sensor_id;sensor_type;location;lat;lon;timestamp;pressure;altitude;pressure_sealevel;temperature;humidity
6668;BME280;3370;47.712;9.082;2023-01-15T00:02:10;96262.97;;;8.90;61.63
6668;BME280;3370;47.712;9.082;2023-01-15T00:04:37;96268.38;;;8.84;61.00
6668;BME280;3370;47.712;9.082;2023-01-15T00:07:03;96261.91;;;8.94;60.44
6668;BME280;3370;47.712;9.082;2023-01-15T00:09:29;96258.59;;;8.92;60.18
6668;BME280;3370;47.712;9.082;2023-01-15T00:11:55;96253.28;;;8.95;59.82
6668;BME280;3370;47.712;9.082;2023-01-15T00:14:21;96252.59;;;8.76;61.47
6668;BME280;3370;47.712;9.082;2023-01-15T00:16:50;96243.19;;;8.92;59.73
6668;BME280;3370;47.712;9.082;2023-01-15T00:19:16;96242.34;;;8.92;61.16
6668;BME280;3370;47.712;9.082;2023-01-15T00:21:42;96238.38;;;8.86;60.53
6668;BME280;3370;47.712;9.082;2023-01-15T00:24:09;96237.91;;;8.95;60.10
6668;BME280;3370;47.712;9.082;2023-01-15T00:26:53;96227.19;;;9.05;59.20
6668;BME280;3370;47.712;9.082;2023-01-15T00:29:38;96233.25;;;8.86;60.40
6668;BME280;3370;47.712;9.082;2023-01-15T00:32:06;96226.28;;;8.88;59.44
6668;BME280;3370;47.712;9.082;2023-01-15T00:34:33;96224.50;;;8.90;60.11
6668;BME280;3370;47.712;9.082;2023-01-15T00:36:59;96222.31;;;8.82;61.21
6668;BME280;3370;47.712;9.082;2023-01-15T00:39:25;96220.59;;;8.83;60.24
6668;BME280;3370;47.712;9.082;2023-01-15T00:41:52;96222.72;;;8.75;61.60
6668;BME280;3370;47.712;9.082;2023-01-15T00:44:19;96230.34;;;8.59;63.23
6668;BME280;3370;47.712;9.082;2023-01-15T00:46:45;96234.88;;;8.54;64.09
6668;BME280;3370;47.712;9.082;2023-01-15T00:49:12;96224.31;;;8.42;64.36
6668;BME280;3370;47.712;9.082;2023-01-15T00:51:38;96220.06;;;8.43;65.66
6668;BME280;3370;47.712;9.082;2023-01-15T00:54:04;96215.31;;;8.34;64.56
6668;BME280;3370;47.712;9.082;2023-01-15T00:56:30;96210.31;;;8.50;64.05
6668;BME280;3370;47.712;9.082;2023-01-15T00:58:56;96211.97;;;8.51;63.72
6668;BME280;3370;47.712;9.082;2023-01-15T01:01:23;96208.88;;;8.61;61.57
6668;BME280;3370;47.712;9.082;2023-01-15T01:03:48;96214.59;;;8.67;62.37
6668;BME280;3370;47.712;9.082;2023-01-15T01:06:18;96210.16;;;8.70;63.64
6668;BME280;3370;47.712;9.082;2023-01-15T01:08:46;96214.97;;;8.59;64.42
6668;BME280;3370;47.712;9.082;2023-01-15T01:11:15;96214.56;;;8.84;61.42
6668;BME280;3370;47.712;9.082;2023-01-15T01:13:41;96210.50;;;8.80;62.17
6668;BME280;3370;47.712;9.082;2023-01-15T01:16:31;96218.34;;;8.77;63.07
6668;BME280;3370;47.712;9.082;2023-01-15T01:19:00;96208.09;;;8.77;63.69
6668;BME280;3370;47.712;9.082;2023-01-15T01:21:28;96210.50;;;8.80;62.54
6668;BME280;3370;47.712;9.082;2023-01-15T01:23:54;96192.34;;;8.67;63.44
6668;BME280;3370;47.712;9.082;2023-01-15T01:26:20;96186.84;;;8.75;63.79
6668;BME280;3370;47.712;9.082;2023-01-15T01:28:52;96180.81;;;8.76;62.66
6668;BME280;3370;47.712;9.082;2023-01-15T01:31:19;96191.53;;;8.67;64.93
6668;BME280;3370;47.712;9.082;2023-01-15T01:33:52;96185.69;;;8.80;63.11
6668;BME280;3370;47.712;9.082;2023-01-15T01:36:18;96182.44;;;8.77;64.62
6668;BME280;3370;47.712;9.082;2023-01-15T01:38:48;96182.63;;;8.74;63.19
6668;BME280;3370;47.712;9.082;2023-01-15T01:41:18;96179.28;;;8.72;64.73
6668;BME280;3370;47.712;9.082;2023-01-15T01:46:21;96174.00;;;8.75;64.30
6668;BME280;3370;47.712;9.082;2023-01-15T01:48:51;96176.19;;;8.82;64.10
6668;BME280;3370;47.712;9.082;2023-01-15T01:51:19;96166.78;;;8.83;64.15
6668;BME280;3370;47.712;9.082;2023-01-15T01:53:46;96173.53;;;8.84;63.70
6668;BME280;3370;47.712;9.082;2023-01-15T01:56:12;96172.94;;;8.79;65.93
6668;BME280;3370;47.712;9.082;2023-01-15T01:58:46;96172.94;;;8.79;65.30
6668;BME280;3370;47.712;9.082;2023-01-15T02:01:14;96164.56;;;8.59;68.53
6668;BME280;3370;47.712;9.082;2023-01-15T02:03:40;96169.50;;;8.47;69.16
6668;BME280;3370;47.712;9.082;2023-01-15T02:06:08;96150.78;;;8.44;69.69
6668;BME280;3370;47.712;9.082;2023-01-15T02:08:36;96138.19;;;8.40;68.01
6668;BME280;3370;47.712;9.082;2023-01-15T02:11:05;96144.44;;;8.52;69.22
6668;BME280;3370;47.712;9.082;2023-01-15T02:13:39;96142.88;;;8.49;70.04
6668;BME280;3370;47.712;9.082;2023-01-15T02:19:17;96135.41;;;8.44;68.77
6668;BME280;3370;47.712;9.082;2023-01-15T02:22:06;96134.13;;;8.53;70.20
6668;BME280;3370;47.712;9.082;2023-01-15T02:31:10;96094.41;;;8.44;70.29
6668;BME280;3370;47.712;9.082;2023-01-15T02:33:51;96095.28;;;8.45;69.92
6668;BME280;3370;47.712;9.082;2023-01-15T02:36:23;96097.84;;;8.45;69.72
6668;BME280;3370;47.712;9.082;2023-01-15T02:38:54;96108.00;;;8.47;69.63
6668;BME280;3370;47.712;9.082;2023-01-15T02:41:29;96107.16;;;8.46;70.22
6668;BME280;3370;47.712;9.082;2023-01-15T02:43:57;96097.44;;;8.53;68.54
6668;BME280;3370;47.712;9.082;2023-01-15T02:46:30;96097.75;;;8.47;68.97
6668;BME280;3370;47.712;9.082;2023-01-15T02:48:57;96088.31;;;8.47;69.50
6668;BME280;3370;47.712;9.082;2023-01-15T02:51:29;96088.47;;;8.44;70.35
6668;BME280;3370;47.712;9.082;2023-01-15T02:54:00;96094.34;;;8.46;69.79
6668;BME280;3370;47.712;9.082;2023-01-15T02:56:31;96095.09;;;8.48;69.75
6668;BME280;3370;47.712;9.082;2023-01-15T02:59:06;96093.44;;;8.47;70.54
6668;BME280;3370;47.712;9.082;2023-01-15T03:01:50;96076.25;;;8.49;70.03
6668;BME280;3370;47.712;9.082;2023-01-15T03:04:45;96080.22;;;8.55;68.44
6668;BME280;3370;47.712;9.082;2023-01-15T03:07:28;96070.66;;;8.58;69.42
6668;BME280;3370;47.712;9.082;2023-01-15T03:09:56;96088.81;;;8.54;70.08
6668;BME280;3370;47.712;9.082;2023-01-15T03:12:49;96076.63;;;8.41;72.73
6668;BME280;3370;47.712;9.082;2023-01-15T03:16:03;96068.91;;;8.25;73.85
6668;BME280;3370;47.712;9.082;2023-01-15T03:19:09;96071.22;;;8.30;74.28
6668;BME280;3370;47.712;9.082;2023-01-15T03:24:10;96060.78;;;8.17;75.27
6668;BME280;3370;47.712;9.082;2023-01-15T03:26:37;96059.72;;;8.21;77.84
6668;BME280;3370;47.712;9.082;2023-01-15T03:29:05;96048.72;;;8.19;76.12
6668;BME280;3370;47.712;9.082;2023-01-15T03:31:34;96053.09;;;8.17;76.56
6668;BME280;3370;47.712;9.082;2023-01-15T03:34:01;96042.47;;;8.25;75.09
6668;BME280;3370;47.712;9.082;2023-01-15T03:36:27;96034.69;;;8.26;76.19
6668;BME280;3370;47.712;9.082;2023-01-15T03:38:54;96026.38;;;8.39;74.64
6668;BME280;3370;47.712;9.082;2023-01-15T03:41:42;96017.94;;;8.37;76.22
6668;BME280;3370;47.712;9.082;2023-01-15T03:47:03;96027.13;;;8.41;75.58
6668;BME280;3370;47.712;9.082;2023-01-15T03:49:49;96025.34;;;8.43;76.01
6668;BME280;3370;47.712;9.082;2023-01-15T03:53:01;96018.22;;;8.48;76.39
6668;BME280;3370;47.712;9.082;2023-01-15T04:01:26;96018.22;;;8.48;76.72
6668;BME280;3370;47.712;9.082;2023-01-15T04:03:53;96021.13;;;8.42;77.93
6668;BME280;3370;47.712;9.082;2023-01-15T04:06:21;96023.19;;;8.51;77.95
6668;BME280;3370;47.712;9.082;2023-01-15T04:08:51;96016.59;;;8.47;78.24
6668;BME280;3370;47.712;9.082;2023-01-15T04:11:25;96013.75;;;8.36;78.58
6668;BME280;3370;47.712;9.082;2023-01-15T04:13:51;96023.69;;;8.42;79.77
6668;BME280;3370;47.712;9.082;2023-01-15T04:16:25;96023.81;;;8.39;79.91
6668;BME280;3370;47.712;9.082;2023-01-15T04:18:52;96030.69;;;8.38;81.98
6668;BME280;3370;47.712;9.082;2023-01-15T04:21:18;96018.09;;;8.34;82.50
6668;BME280;3370;47.712;9.082;2023-01-15T04:23:44;96023.06;;;8.37;84.16
6668;BME280;3370;47.712;9.082;2023-01-15T04:26:11;96025.03;;;8.49;83.51
6668;BME280;3370;47.712;9.082;2023-01-15T04:28:37;96028.91;;;8.56;82.29
6668;BME280;3370;47.712;9.082;2023-01-15T04:31:03;96020.97;;;8.45;83.80
6668;BME280;3370;47.712;9.082;2023-01-15T04:33:29;96022.00;;;8.41;84.99
6668;BME280;3370;47.712;9.082;2023-01-15T04:35:59;96018.34;;;8.47;84.88
6668;BME280;3370;47.712;9.082;2023-01-15T04:38:25;96012.13;;;8.51;84.57
6668;BME280;3370;47.712;9.082;2023-01-15T04:40:51;96004.38;;;8.52;85.33
6668;BME280;3370;47.712;9.082;2023-01-15T04:43:36;96016.09;;;8.56;85.40
6668;BME280;3370;47.712;9.082;2023-01-15T04:46:22;96017.06;;;8.54;84.97
6668;BME280;3370;47.712;9.082;2023-01-15T04:48:49;96007.84;;;8.67;84.28
6668;BME280;3370;47.712;9.082;2023-01-15T04:51:14;96006.50;;;8.60;85.34
6668;BME280;3370;47.712;9.082;2023-01-15T04:53:40;96000.88;;;8.53;85.72
6668;BME280;3370;47.712;9.082;2023-01-15T04:56:06;95997.06;;;8.44;87.14
6668;BME280;3370;47.712;9.082;2023-01-15T04:58:33;95998.81;;;8.44;87.65
6668;BME280;3370;47.712;9.082;2023-01-15T05:00:59;95984.09;;;8.48;87.14
6668;BME280;3370;47.712;9.082;2023-01-15T05:03:29;95998.16;;;8.56;86.82
6668;BME280;3370;47.712;9.082;2023-01-15T05:06:00;96006.28;;;8.49;86.86
6668;BME280;3370;47.712;9.082;2023-01-15T05:08:27;95995.16;;;8.48;88.71
6668;BME280;3370;47.712;9.082;2023-01-15T05:10:53;95992.78;;;8.45;87.43
6668;BME280;3370;47.712;9.082;2023-01-15T05:13:19;95998.38;;;8.36;87.50
6668;BME280;3370;47.712;9.082;2023-01-15T05:15:45;95995.72;;;8.37;88.33
6668;BME280;3370;47.712;9.082;2023-01-15T05:18:13;96000.56;;;8.26;90.93
6668;BME280;3370;47.712;9.082;2023-01-15T05:20:40;95999.03;;;8.23;91.78
6668;BME280;3370;47.712;9.082;2023-01-15T05:23:06;95995.88;;;8.18;92.00
6668;BME280;3370;47.712;9.082;2023-01-15T05:25:35;95999.22;;;8.03;93.12
6668;BME280;3370;47.712;9.082;2023-01-15T05:28:01;95995.34;;;8.12;93.72
6668;BME280;3370;47.712;9.082;2023-01-15T05:30:27;95994.38;;;8.14;91.37
6668;BME280;3370;47.712;9.082;2023-01-15T05:32:52;95989.47;;;8.10;91.72
6668;BME280;3370;47.712;9.082;2023-01-15T05:35:18;95976.03;;;8.22;91.31
6668;BME280;3370;47.712;9.082;2023-01-15T05:37:44;95976.19;;;8.19;91.03
6668;BME280;3370;47.712;9.082;2023-01-15T05:40:10;95977.59;;;8.24;90.26
6668;BME280;3370;47.712;9.082;2023-01-15T05:42:37;95974.16;;;8.25;90.57
6668;BME280;3370;47.712;9.082;2023-01-15T05:45:03;95983.75;;;8.38;88.75
6668;BME280;3370;47.712;9.082;2023-01-15T05:47:29;95979.72;;;8.50;86.40
6668;BME280;3370;47.712;9.082;2023-01-15T05:49:55;95987.91;;;8.56;86.21
6668;BME280;3370;47.712;9.082;2023-01-15T05:52:20;95995.44;;;8.59;86.27
6668;BME280;3370;47.712;9.082;2023-01-15T05:54:48;95991.63;;;8.67;85.73
6668;BME280;3370;47.712;9.082;2023-01-15T05:57:15;95994.38;;;8.63;85.78
6668;BME280;3370;47.712;9.082;2023-01-15T05:59:40;96000.72;;;8.72;84.80
6668;BME280;3370;47.712;9.082;2023-01-15T06:02:06;95980.97;;;8.74;84.22
6668;BME280;3370;47.712;9.082;2023-01-15T06:04:32;95992.25;;;8.86;83.79
6668;BME280;3370;47.712;9.082;2023-01-15T06:06:58;95994.81;;;8.86;83.09
6668;BME280;3370;47.712;9.082;2023-01-15T06:09:24;95987.66;;;8.77;84.24
6668;BME280;3370;47.712;9.082;2023-01-15T06:11:52;95986.09;;;8.74;86.07
6668;BME280;3370;47.712;9.082;2023-01-15T06:14:18;95985.09;;;8.61;85.12
6668;BME280;3370;47.712;9.082;2023-01-15T06:16:45;95985.34;;;8.56;87.57
6668;BME280;3370;47.712;9.082;2023-01-15T06:19:12;95973.63;;;8.52;88.67
6668;BME280;3370;47.712;9.082;2023-01-15T06:21:39;95977.88;;;8.36;89.35
6668;BME280;3370;47.712;9.082;2023-01-15T06:24:05;95981.34;;;8.35;89.79
6668;BME280;3370;47.712;9.082;2023-01-15T06:26:32;95977.53;;;8.26;90.53
6668;BME280;3370;47.712;9.082;2023-01-15T06:28:58;95981.84;;;8.25;89.94
6668;BME280;3370;47.712;9.082;2023-01-15T06:31:24;95977.44;;;8.28;90.05
6668;BME280;3370;47.712;9.082;2023-01-15T06:33:54;95977.78;;;8.21;89.64
6668;BME280;3370;47.712;9.082;2023-01-15T06:36:25;95978.53;;;8.23;89.79
6668;BME280;3370;47.712;9.082;2023-01-15T06:38:51;95987.69;;;8.28;89.84
6668;BME280;3370;47.712;9.082;2023-01-15T06:41:20;95978.78;;;8.35;89.43
6668;BME280;3370;47.712;9.082;2023-01-15T06:44:05;95972.00;;;8.34;89.03
6668;BME280;3370;47.712;9.082;2023-01-15T06:46:51;95969.28;;;8.37;89.53
6668;BME280;3370;47.712;9.082;2023-01-15T06:49:36;95958.72;;;8.27;88.41
6668;BME280;3370;47.712;9.082;2023-01-15T06:52:03;95966.13;;;8.32;88.77
6668;BME280;3370;47.712;9.082;2023-01-15T06:54:30;95967.13;;;8.29;89.51
6668;BME280;3370;47.712;9.082;2023-01-15T06:56:56;95964.81;;;8.24;89.35
6668;BME280;3370;47.712;9.082;2023-01-15T06:59:22;95961.34;;;8.25;89.41
6668;BME280;3370;47.712;9.082;2023-01-15T07:01:48;95963.56;;;8.32;88.85
6668;BME280;3370;47.712;9.082;2023-01-15T07:04:14;95956.97;;;8.28;89.54
6668;BME280;3370;47.712;9.082;2023-01-15T07:06:40;95949.72;;;8.36;89.75
6668;BME280;3370;47.712;9.082;2023-01-15T07:09:06;95935.88;;;8.22;90.14
6668;BME280;3370;47.712;9.082;2023-01-15T07:11:32;95944.81;;;8.15;91.54
6668;BME280;3370;47.712;9.082;2023-01-15T07:13:58;95934.16;;;8.07;91.69
6668;BME280;3370;47.712;9.082;2023-01-15T07:16:35;95926.28;;;8.10;92.42
6668;BME280;3370;47.712;9.082;2023-01-15T07:19:02;95920.78;;;8.02;92.64
6668;BME280;3370;47.712;9.082;2023-01-15T07:21:29;95913.56;;;7.93;92.74
6668;BME280;3370;47.712;9.082;2023-01-15T07:23:58;95905.72;;;7.96;92.39
6668;BME280;3370;47.712;9.082;2023-01-15T07:26:25;95905.66;;;7.81;94.12
6668;BME280;3370;47.712;9.082;2023-01-15T07:28:51;95900.97;;;7.72;94.68
6668;BME280;3370;47.712;9.082;2023-01-15T07:31:17;95893.31;;;7.72;95.99
6668;BME280;3370;47.712;9.082;2023-01-15T07:33:43;95901.66;;;7.76;96.41
6668;BME280;3370;47.712;9.082;2023-01-15T07:36:09;95891.88;;;7.66;97.26
6668;BME280;3370;47.712;9.082;2023-01-15T07:38:35;95893.41;;;7.71;98.03
6668;BME280;3370;47.712;9.082;2023-01-15T07:41:00;95896.19;;;7.66;98.23
6668;BME280;3370;47.712;9.082;2023-01-15T07:43:45;95883.53;;;7.63;98.69
6668;BME280;3370;47.712;9.082;2023-01-15T07:46:29;95883.72;;;7.60;98.95
6668;BME280;3370;47.712;9.082;2023-01-15T07:49:14;95883.41;;;7.66;98.86
6668;BME280;3370;47.712;9.082;2023-01-15T07:51:59;95885.22;;;7.64;99.59
6668;BME280;3370;47.712;9.082;2023-01-15T07:54:25;95884.47;;;7.62;99.58
6668;BME280;3370;47.712;9.082;2023-01-15T07:56:52;95891.56;;;7.57;100.00
6668;BME280;3370;47.712;9.082;2023-01-15T07:59:18;95895.53;;;7.62;99.24
6668;BME280;3370;47.712;9.082;2023-01-15T08:01:44;95901.63;;;7.60;99.66
6668;BME280;3370;47.712;9.082;2023-01-15T08:04:10;95905.00;;;7.60;99.34
6668;BME280;3370;47.712;9.082;2023-01-15T08:06:36;95905.69;;;7.64;98.99
6668;BME280;3370;47.712;9.082;2023-01-15T08:09:03;95914.69;;;7.71;98.16
6668;BME280;3370;47.712;9.082;2023-01-15T08:11:29;95920.75;;;7.86;97.61
6668;BME280;3370;47.712;9.082;2023-01-15T08:14:13;95916.06;;;8.10;92.61
6668;BME280;3370;47.712;9.082;2023-01-15T08:16:58;95926.56;;;8.21;91.74
6668;BME280;3370;47.712;9.082;2023-01-15T08:19:24;95931.34;;;8.28;91.05
6668;BME280;3370;47.712;9.082;2023-01-15T08:21:50;95932.28;;;8.58;89.53
6668;BME280;3370;47.712;9.082;2023-01-15T08:24:16;95934.59;;;8.63;88.70
6668;BME280;3370;47.712;9.082;2023-01-15T08:26:42;95928.47;;;8.66;89.53
6668;BME280;3370;47.712;9.082;2023-01-15T08:29:08;95936.19;;;8.96;85.85
6668;BME280;3370;47.712;9.082;2023-01-15T08:31:34;95940.19;;;8.86;86.98
6668;BME280;3370;47.712;9.082;2023-01-15T08:34:02;95945.41;;;9.14;85.01
6668;BME280;3370;47.712;9.082;2023-01-15T08:36:27;95962.66;;;9.27;85.18
6668;BME280;3370;47.712;9.082;2023-01-15T08:38:53;95962.72;;;9.11;87.39
6668;BME280;3370;47.712;9.082;2023-01-15T08:41:19;95958.31;;;9.13;87.50
6668;BME280;3370;47.712;9.082;2023-01-15T08:43:45;95949.16;;;9.09;89.32
6668;BME280;3370;47.712;9.082;2023-01-15T08:46:11;95972.56;;;9.02;89.78
6668;BME280;3370;47.712;9.082;2023-01-15T08:48:37;95960.81;;;8.98;89.51
6668;BME280;3370;47.712;9.082;2023-01-15T08:51:06;95985.97;;;8.92;89.25
6668;BME280;3370;47.712;9.082;2023-01-15T08:53:32;95989.31;;;8.78;88.09
6668;BME280;3370;47.712;9.082;2023-01-15T08:55:59;95986.66;;;8.79;87.59
6668;BME280;3370;47.712;9.082;2023-01-15T08:58:31;96003.38;;;8.71;88.26
6668;BME280;3370;47.712;9.082;2023-01-15T09:01:05;96003.88;;;8.61;88.97
6668;BME280;3370;47.712;9.082;2023-01-15T09:03:32;96013.28;;;8.61;87.67
6668;BME280;3370;47.712;9.082;2023-01-15T09:05:59;96023.88;;;8.55;89.15
6668;BME280;3370;47.712;9.082;2023-01-15T09:08:26;96026.84;;;8.47;90.08
6668;BME280;3370;47.712;9.082;2023-01-15T09:11:00;96034.97;;;8.38;90.17
6668;BME280;3370;47.712;9.082;2023-01-15T09:13:28;96044.94;;;8.26;91.40
6668;BME280;3370;47.712;9.082;2023-01-15T09:16:04;96045.59;;;8.14;93.52
6668;BME280;3370;47.712;9.082;2023-01-15T09:18:30;96059.91;;;8.01;92.97
6668;BME280;3370;47.712;9.082;2023-01-15T09:20:56;96065.34;;;7.95;93.62
6668;BME280;3370;47.712;9.082;2023-01-15T09:23:23;96081.44;;;7.79;93.04
6668;BME280;3370;47.712;9.082;2023-01-15T09:25:59;96088.00;;;7.67;95.10
6668;BME280;3370;47.712;9.082;2023-01-15T09:28:26;96107.94;;;7.61;94.27
6668;BME280;3370;47.712;9.082;2023-01-15T09:30:52;96115.31;;;7.49;96.70
6668;BME280;3370;47.712;9.082;2023-01-15T09:33:18;96110.69;;;7.39;98.77
6668;BME280;3370;47.712;9.082;2023-01-15T09:35:44;96127.53;;;7.25;99.03
6668;BME280;3370;47.712;9.082;2023-01-15T09:38:16;96126.16;;;7.18;97.95
6668;BME280;3370;47.712;9.082;2023-01-15T09:43:55;96138.38;;;7.12;100.00
6668;BME280;3370;47.712;9.082;2023-01-15T09:46:56;96148.41;;;7.16;96.57
6668;BME280;3370;47.712;9.082;2023-01-15T09:49:48;96166.94;;;7.02;96.66
6668;BME280;3370;47.712;9.082;2023-01-15T09:55:19;96190.59;;;6.87;100.00
6668;BME280;3370;47.712;9.082;2023-01-15T09:57:51;96191.63;;;6.83;100.00
6668;BME280;3370;47.712;9.082;2023-01-15T10:00:24;96188.41;;;6.98;100.00
6668;BME280;3370;47.712;9.082;2023-01-15T10:08:49;96218.19;;;6.39;100.00
6668;BME280;3370;47.712;9.082;2023-01-15T10:14:04;96222.34;;;6.42;100.00
6668;BME280;3370;47.712;9.082;2023-01-15T10:16:31;96225.09;;;6.37;100.00
6668;BME280;3370;47.712;9.082;2023-01-15T10:19:00;96238.28;;;6.26;100.00
6668;BME280;3370;47.712;9.082;2023-01-15T10:26:58;96257.94;;;6.04;100.00
6668;BME280;3370;47.712;9.082;2023-01-15T10:35:31;96265.69;;;6.01;100.00
6668;BME280;3370;47.712;9.082;2023-01-15T10:38:21;96263.25;;;5.98;100.00
6668;BME280;3370;47.712;9.082;2023-01-15T10:41:09;96265.88;;;5.94;100.00
6668;BME280;3370;47.712;9.082;2023-01-15T10:44:40;96279.34;;;6.00;100.00
6668;BME280;3370;47.712;9.082;2023-01-15T10:46:55;96288.91;;;5.71;100.00
6668;BME280;3370;47.712;9.082;2023-01-15T10:49:28;96289.44;;;5.57;100.00
6668;BME280;3370;47.712;9.082;2023-01-15T10:52:02;96304.38;;;5.44;100.00
6668;BME280;3370;47.712;9.082;2023-01-15T10:54:40;96320.53;;;5.19;100.00
6668;BME280;3370;47.712;9.082;2023-01-15T10:57:22;96338.84;;;5.06;100.00
6668;BME280;3370;47.712;9.082;2023-01-15T10:59:57;96339.69;;;5.06;100.00
6668;BME280;3370;47.712;9.082;2023-01-15T11:02:55;96353.84;;;4.90;100.00
6668;BME280;3370;47.712;9.082;2023-01-15T11:05:23;96357.34;;;4.86;100.00
6668;BME280;3370;47.712;9.082;2023-01-15T11:07:52;96360.03;;;4.83;100.00
6668;BME280;3370;47.712;9.082;2023-01-15T11:10:21;96359.34;;;4.77;100.00
6668;BME280;3370;47.712;9.082;2023-01-15T11:13:09;96387.66;;;4.68;100.00
6668;BME280;3370;47.712;9.082;2023-01-15T11:15:55;96385.28;;;4.62;100.00
6668;BME280;3370;47.712;9.082;2023-01-15T11:18:42;96393.34;;;4.50;100.00
6668;BME280;3370;47.712;9.082;2023-01-15T11:21:28;96399.09;;;4.55;100.00
6668;BME280;3370;47.712;9.082;2023-01-15T11:23:57;96407.41;;;4.33;100.00
6668;BME280;3370;47.712;9.082;2023-01-15T11:26:27;96408.56;;;4.23;100.00
6668;BME280;3370;47.712;9.082;2023-01-15T11:28:55;96424.53;;;4.28;100.00
6668;BME280;3370;47.712;9.082;2023-01-15T11:31:21;96420.56;;;4.19;100.00
6668;BME280;3370;47.712;9.082;2023-01-15T11:34:01;96445.34;;;4.13;100.00
6668;BME280;3370;47.712;9.082;2023-01-15T11:36:28;96444.56;;;4.11;100.00
6668;BME280;3370;47.712;9.082;2023-01-15T11:38:55;96447.47;;;3.97;100.00
6668;BME280;3370;47.712;9.082;2023-01-15T11:44:11;96470.69;;;3.86;100.00
6668;BME280;3370;47.712;9.082;2023-01-15T11:46:55;96487.88;;;3.78;100.00
6668;BME280;3370;47.712;9.082;2023-01-15T11:49:49;96491.44;;;3.71;100.00
6668;BME280;3370;47.712;9.082;2023-01-15T11:52:56;96497.56;;;3.63;100.00
6668;BME280;3370;47.712;9.082;2023-01-15T11:55:25;96501.06;;;3.59;100.00
6668;BME280;3370;47.712;9.082;2023-01-15T11:57:52;96517.38;;;3.52;100.00
6668;BME280;3370;47.712;9.082;2023-01-15T12:00:31;96529.03;;;3.59;100.00
6668;BME280;3370;47.712;9.082;2023-01-15T12:03:12;96522.81;;;3.37;100.00
6668;BME280;3370;47.712;9.082;2023-01-15T12:06:08;96519.72;;;3.25;100.00
6668;BME280;3370;47.712;9.082;2023-01-15T12:08:50;96536.72;;;3.23;100.00
6668;BME280;3370;47.712;9.082;2023-01-15T12:14:38;96548.75;;;3.15;100.00
6668;BME280;3370;47.712;9.082;2023-01-15T12:17:31;96549.50;;;3.19;100.00
6668;BME280;3370;47.712;9.082;2023-01-15T12:23:41;96558.38;;;3.01;100.00
6668;BME280;3370;47.712;9.082;2023-01-15T12:26:30;96578.78;;;2.99;100.00
6668;BME280;3370;47.712;9.082;2023-01-15T12:31:55;96564.38;;;2.98;100.00
6668;BME280;3370;47.712;9.082;2023-01-15T12:34:28;96581.25;;;3.01;100.00
6668;BME280;3370;47.712;9.082;2023-01-15T12:37:07;96578.06;;;2.93;100.00
6668;BME280;3370;47.712;9.082;2023-01-15T12:42:14;96579.72;;;2.94;100.00
6668;BME280;3370;47.712;9.082;2023-01-15T12:45:19;96595.81;;;2.94;100.00
6668;BME280;3370;47.712;9.082;2023-01-15T12:50:49;96592.53;;;2.89;100.00
6668;BME280;3370;47.712;9.082;2023-01-15T12:53:39;96614.53;;;2.90;100.00
6668;BME280;3370;47.712;9.082;2023-01-15T12:59:06;96593.34;;;2.90;100.00
6668;BME280;3370;47.712;9.082;2023-01-15T13:07:58;96607.91;;;2.83;100.00
6668;BME280;3370;47.712;9.082;2023-01-15T13:10:29;96608.81;;;2.79;100.00
6668;BME280;3370;47.712;9.082;2023-01-15T13:13:21;96608.75;;;2.83;100.00
6668;BME280;3370;47.712;9.082;2023-01-15T13:16:12;96605.25;;;2.87;100.00
6668;BME280;3370;47.712;9.082;2023-01-15T13:21:33;96591.75;;;2.85;100.00
6668;BME280;3370;47.712;9.082;2023-01-15T13:27:20;96611.34;;;2.80;100.00
6668;BME280;3370;47.712;9.082;2023-01-15T13:30:31;96631.66;;;2.80;100.00
6668;BME280;3370;47.712;9.082;2023-01-15T13:33:16;96628.94;;;2.88;100.00
6668;BME280;3370;47.712;9.082;2023-01-15T13:35:48;96631.59;;;2.83;100.00
6668;BME280;3370;47.712;9.082;2023-01-15T13:38:21;96642.63;;;2.81;100.00
6668;BME280;3370;47.712;9.082;2023-01-15T13:40:52;96635.78;;;2.84;100.00
6668;BME280;3370;47.712;9.082;2023-01-15T13:43:40;96655.31;;;2.82;100.00
6668;BME280;3370;47.712;9.082;2023-01-15T13:46:12;96638.53;;;2.75;99.76
6668;BME280;3370;47.712;9.082;2023-01-15T13:48:47;96645.16;;;2.82;100.00
6668;BME280;3370;47.712;9.082;2023-01-15T13:51:29;96647.81;;;2.76;100.00
6668;BME280;3370;47.712;9.082;2023-01-15T13:53:58;96649.44;;;2.80;100.00
6668;BME280;3370;47.712;9.082;2023-01-15T13:56:30;96642.69;;;2.79;100.00
6668;BME280;3370;47.712;9.082;2023-01-15T13:58:59;96635.88;;;2.81;100.00
6668;BME280;3370;47.712;9.082;2023-01-15T14:06:47;96652.50;;;2.95;100.00
6668;BME280;3370;47.712;9.082;2023-01-15T14:14:59;96648.22;;;2.97;100.00
6668;BME280;3370;47.712;9.082;2023-01-15T14:31:41;96682.91;;;2.99;99.46
6668;BME280;3370;47.712;9.082;2023-01-15T14:36:58;96684.22;;;3.17;100.00
6668;BME280;3370;47.712;9.082;2023-01-15T14:39:56;96679.41;;;3.05;100.00
6668;BME280;3370;47.712;9.082;2023-01-15T14:42:30;96688.59;;;3.11;100.00
6668;BME280;3370;47.712;9.082;2023-01-15T14:45:45;96682.00;;;3.02;100.00
6668;BME280;3370;47.712;9.082;2023-01-15T14:50:45;96682.78;;;3.04;100.00
6668;BME280;3370;47.712;9.082;2023-01-15T14:56:03;96682.84;;;3.01;99.30
6668;BME280;3370;47.712;9.082;2023-01-15T14:58:45;96686.16;;;3.04;98.99
6668;BME280;3370;47.712;9.082;2023-01-15T15:04:35;96679.50;;;2.99;99.37
6668;BME280;3370;47.712;9.082;2023-01-15T15:07:13;96680.22;;;3.05;99.03
6668;BME280;3370;47.712;9.082;2023-01-15T15:10:06;96679.25;;;3.11;99.48
6668;BME280;3370;47.712;9.082;2023-01-15T15:12:52;96683.38;;;3.17;99.99
6668;BME280;3370;47.712;9.082;2023-01-15T15:21:11;96696.81;;;3.61;96.91
6668;BME280;3370;47.712;9.082;2023-01-15T15:24:10;96683.72;;;3.76;95.50
6668;BME280;3370;47.712;9.082;2023-01-15T15:26:38;96696.25;;;3.84;93.49
6668;BME280;3370;47.712;9.082;2023-01-15T15:29:14;96695.09;;;3.97;93.12
6668;BME280;3370;47.712;9.082;2023-01-15T15:34:31;96695.81;;;3.68;92.23
6668;BME280;3370;47.712;9.082;2023-01-15T15:37:02;96687.25;;;3.71;94.50
6668;BME280;3370;47.712;9.082;2023-01-15T15:39:44;96685.69;;;3.65;92.12
6668;BME280;3370;47.712;9.082;2023-01-15T15:42:29;96682.19;;;3.69;93.24
6668;BME280;3370;47.712;9.082;2023-01-15T15:45:26;96680.91;;;3.51;92.66
6668;BME280;3370;47.712;9.082;2023-01-15T15:48:32;96675.84;;;3.51;95.58
6668;BME280;3370;47.712;9.082;2023-01-15T15:51:30;96678.59;;;3.42;95.00
6668;BME280;3370;47.712;9.082;2023-01-15T15:54:25;96676.19;;;3.36;93.86
6668;BME280;3370;47.712;9.082;2023-01-15T15:57:15;96668.72;;;3.28;93.03
6668;BME280;3370;47.712;9.082;2023-01-15T15:59:48;96668.00;;;3.23;94.59
6668;BME280;3370;47.712;9.082;2023-01-15T16:02:31;96670.31;;;3.34;95.13
6668;BME280;3370;47.712;9.082;2023-01-15T16:05:24;96669.56;;;3.29;95.89
6668;BME280;3370;47.712;9.082;2023-01-15T16:07:53;96671.63;;;3.11;95.10
6668;BME280;3370;47.712;9.082;2023-01-15T16:10:29;96668.06;;;3.20;96.38